createdAt,value
2023-01-26T00:01:40.023Z,1.80
2023-01-26T00:04:07.499Z,1.20
2023-01-26T00:06:35.148Z,3.00
2023-01-26T00:09:02.536Z,3.00
2023-01-26T00:11:30.677Z,1.60
2023-01-26T00:14:00.743Z,2.60
2023-01-26T00:16:28.745Z,1.00
2023-01-26T00:18:56.546Z,0.00
2023-01-26T00:21:25.426Z,3.00
2023-01-26T00:23:53.600Z,2.20
2023-01-26T00:26:26.895Z,1.00
2023-01-26T00:28:54.826Z,2.20
2023-01-26T00:31:25.931Z,1.00
2023-01-26T00:33:55.820Z,1.00
2023-01-26T00:36:23.956Z,4.00
2023-01-26T00:38:51.549Z,2.00
2023-01-26T00:41:37.872Z,2.20
2023-01-26T00:44:05.571Z,1.00
2023-01-26T00:46:32.912Z,1.00
2023-01-26T00:49:01.399Z,1.00
2023-01-26T00:51:28.929Z,2.20
2023-01-26T00:53:57.461Z,3.00
2023-01-26T00:56:28.371Z,3.00
2023-01-26T00:58:55.988Z,1.80
2023-01-26T01:01:23.694Z,2.00
2023-01-26T01:03:52.482Z,2.20
2023-01-26T01:06:19.952Z,1.00
2023-01-26T01:08:47.597Z,1.00
2023-01-26T01:11:15.174Z,2.20
2023-01-26T01:13:43.164Z,3.00
2023-01-26T01:16:13.858Z,2.20
2023-01-26T01:18:41.803Z,3.60
2023-01-26T01:21:11.743Z,0.00
2023-01-26T01:23:40.833Z,1.00
2023-01-26T01:26:09.273Z,0.00
2023-01-26T01:28:37.372Z,1.80
2023-01-26T01:31:09.737Z,0.60
2023-01-26T01:33:38.051Z,1.00
2023-01-26T01:36:09.015Z,0.80
2023-01-26T01:38:36.863Z,1.00
2023-01-26T01:41:05.074Z,1.00
2023-01-26T01:43:32.867Z,1.00
2023-01-26T01:46:03.902Z,2.00
2023-01-26T01:48:47.248Z,1.00
2023-01-26T01:51:32.542Z,3.00
2023-01-26T01:54:07.021Z,3.00
2023-01-26T01:56:35.952Z,3.00
2023-01-26T01:59:06.935Z,3.00
2023-01-26T02:01:35.515Z,3.00
2023-01-26T02:04:06.519Z,1.20
2023-01-26T02:06:43.157Z,3.40
2023-01-26T02:09:31.718Z,3.00
2023-01-26T02:12:00.788Z,3.60
2023-01-26T02:14:29.816Z,3.00
2023-01-26T02:16:57.303Z,3.00
2023-01-26T02:19:58.839Z,3.00
2023-01-26T02:22:45.151Z,1.80
2023-01-26T02:25:41.109Z,3.00
2023-01-26T02:28:08.877Z,1.80
2023-01-26T02:30:36.630Z,4.00
2023-01-26T02:33:04.372Z,3.20
2023-01-26T02:35:33.752Z,3.40
2023-01-26T02:38:02.432Z,4.00
2023-01-26T02:40:55.682Z,3.00
2023-01-26T02:43:26.391Z,3.40
2023-01-26T02:45:54.570Z,3.00
2023-01-26T02:48:46.548Z,3.00
2023-01-26T02:51:14.215Z,4.00
2023-01-26T02:53:41.730Z,3.00
2023-01-26T02:56:09.502Z,3.80
2023-01-26T02:58:36.866Z,4.00
2023-01-26T03:01:04.885Z,6.00
2023-01-26T03:03:45.633Z,4.80
2023-01-26T03:06:15.644Z,3.60
2023-01-26T03:08:43.308Z,5.60
2023-01-26T03:11:12.373Z,5.60
2023-01-26T03:13:40.637Z,4.40
2023-01-26T03:16:10.519Z,5.20
2023-01-26T03:18:57.142Z,6.00
2023-01-26T03:21:43.288Z,5.60
2023-01-26T03:24:33.125Z,3.00
2023-01-26T03:27:22.656Z,1.80
2023-01-26T03:29:51.795Z,3.80
2023-01-26T03:32:19.503Z,6.80
2023-01-26T03:34:47.623Z,4.00
2023-01-26T03:37:15.104Z,6.80
2023-01-26T03:40:11.056Z,6.00
2023-01-26T03:42:57.973Z,7.40
2023-01-26T03:45:43.735Z,6.60
2023-01-26T03:48:31.829Z,3.00
2023-01-26T03:51:19.748Z,1.00
2023-01-26T03:54:06.209Z,6.00
2023-01-26T03:56:34.008Z,6.40
2023-01-26T03:59:09.626Z,6.00
2023-01-26T04:02:06.162Z,6.00
2023-01-26T04:04:54.315Z,6.20
2023-01-26T04:07:44.478Z,5.80
2023-01-26T04:10:12.171Z,4.40
2023-01-26T04:12:40.793Z,5.60
2023-01-26T04:15:35.143Z,6.80
2023-01-26T04:18:26.318Z,4.80
2023-01-26T04:21:13.429Z,7.00
2023-01-26T04:23:43.558Z,5.60
2023-01-26T04:26:10.888Z,7.80
2023-01-26T04:28:38.632Z,6.00
2023-01-26T04:31:08.912Z,4.80
2023-01-26T04:33:38.257Z,7.00
2023-01-26T04:36:07.089Z,9.00
2023-01-26T04:38:37.248Z,4.40
2023-01-26T04:41:05.070Z,6.20
2023-01-26T04:43:38.581Z,6.80
2023-01-26T04:46:08.004Z,9.00
2023-01-26T04:48:37.520Z,8.60
2023-01-26T04:51:16.668Z,6.40
2023-01-26T04:53:44.298Z,6.00
2023-01-26T04:56:23.233Z,8.60
2023-01-26T04:58:53.427Z,7.00
2023-01-26T05:01:22.308Z,7.40
2023-01-26T05:03:50.149Z,6.00
2023-01-26T05:06:17.720Z,6.40
2023-01-26T05:08:47.067Z,9.00
2023-01-26T05:11:14.617Z,9.20
2023-01-26T05:13:56.935Z,9.80
2023-01-26T05:16:44.448Z,7.00
2023-01-26T05:19:34.744Z,1.80
2023-01-26T05:22:19.611Z,4.00
2023-01-26T05:25:11.015Z,6.00
2023-01-26T05:27:47.158Z,7.20
2023-01-26T05:30:15.543Z,11.20
2023-01-26T05:32:43.507Z,10.00
2023-01-26T05:35:11.448Z,9.00
2023-01-26T05:37:38.977Z,9.40
2023-01-26T05:40:06.938Z,7.60
2023-01-26T05:42:34.740Z,9.00
2023-01-26T05:45:25.360Z,7.80
2023-01-26T05:47:56.623Z,9.60
2023-01-26T05:50:24.214Z,7.80
2023-01-26T05:53:11.972Z,10.00
2023-01-26T05:55:39.467Z,8.20
2023-01-26T05:58:07.117Z,9.00
2023-01-26T06:00:34.559Z,7.80
2023-01-26T06:03:08.470Z,8.60
2023-01-26T06:05:36.190Z,11.60
2023-01-26T06:08:10.790Z,7.00
2023-01-26T06:10:52.560Z,10.20
2023-01-26T06:13:39.786Z,12.40
2023-01-26T06:16:24.051Z,6.75
2023-01-26T06:18:51.930Z,11.20
2023-01-26T06:21:19.960Z,12.60
2023-01-26T06:23:47.891Z,9.60
2023-01-26T06:26:15.994Z,4.00
2023-01-26T06:28:44.199Z,9.20
2023-01-26T06:31:12.270Z,11.75
2023-01-26T06:33:40.337Z,4.40
2023-01-26T06:36:11.401Z,9.40
2023-01-26T06:38:45.498Z,10.00
2023-01-26T06:41:13.255Z,9.60
2023-01-26T06:43:40.881Z,12.00
2023-01-26T06:46:08.355Z,7.00
2023-01-26T06:48:39.155Z,8.00
2023-01-26T06:51:06.907Z,11.75
2023-01-26T06:53:40.334Z,11.00
2023-01-26T06:56:28.911Z,9.25
2023-01-26T06:59:16.886Z,9.75
2023-01-26T07:02:02.617Z,7.00
2023-01-26T07:04:30.703Z,15.75
2023-01-26T07:06:58.193Z,8.50
2023-01-26T07:09:26.039Z,7.00
2023-01-26T07:11:53.646Z,7.00
2023-01-26T07:14:21.112Z,12.75
2023-01-26T07:16:48.724Z,12.00
2023-01-26T07:19:16.410Z,14.00
2023-01-26T07:21:43.973Z,12.00
2023-01-26T07:24:11.839Z,11.50
2023-01-26T07:26:39.446Z,13.50
2023-01-26T07:29:07.081Z,7.50
2023-01-26T07:31:34.658Z,12.00
2023-01-26T07:34:02.333Z,11.00
2023-01-26T07:36:29.997Z,9.25
2023-01-26T07:38:57.542Z,11.00
2023-01-26T07:41:25.225Z,7.25
2023-01-26T07:43:52.811Z,12.00
2023-01-26T07:46:27.308Z,7.50
2023-01-26T07:48:55.306Z,7.50
2023-01-26T07:51:23.511Z,10.50
2023-01-26T07:53:51.003Z,10.00
2023-01-26T07:56:22.182Z,10.00
2023-01-26T07:58:51.765Z,12.75
2023-01-26T08:01:19.558Z,11.50
2023-01-26T08:03:50.958Z,12.00
2023-01-26T08:06:18.815Z,6.25
2023-01-26T08:08:51.503Z,9.50
2023-01-26T08:11:20.063Z,7.75
2023-01-26T08:13:47.392Z,10.00
2023-01-26T08:16:15.167Z,12.00
2023-01-26T08:18:44.617Z,12.25
2023-01-26T08:21:14.288Z,15.00
2023-01-26T08:23:42.031Z,7.25
2023-01-26T08:26:13.673Z,9.00
2023-01-26T08:28:42.054Z,9.50
2023-01-26T08:31:20.247Z,10.00
2023-01-26T08:33:51.065Z,12.00
2023-01-26T08:36:22.294Z,4.50
2023-01-26T08:38:51.386Z,5.50
2023-01-26T08:41:19.512Z,10.00
2023-01-26T08:43:47.297Z,6.50
2023-01-26T08:46:15.875Z,6.25
2023-01-26T08:48:43.851Z,9.50
2023-01-26T08:51:11.504Z,11.00
2023-01-26T08:53:39.304Z,7.00
2023-01-26T08:56:10.454Z,2.00
2023-01-26T08:58:38.374Z,9.50
2023-01-26T09:01:12.863Z,10.25
2023-01-26T09:03:40.962Z,11.40
2023-01-26T09:06:10.255Z,12.25
2023-01-26T09:08:38.503Z,10.00
2023-01-26T09:11:07.587Z,13.00
2023-01-26T09:13:35.739Z,4.00
2023-01-26T09:16:08.362Z,10.80
2023-01-26T09:18:36.179Z,9.75
2023-01-26T09:21:07.899Z,10.40
2023-01-26T09:23:36.013Z,10.40
2023-01-26T09:26:04.252Z,4.40
2023-01-26T09:28:32.208Z,6.80
2023-01-26T09:31:08.779Z,9.00
2023-01-26T09:33:36.860Z,5.60
2023-01-26T09:36:06.484Z,6.60
2023-01-26T09:38:34.659Z,8.60
2023-01-26T09:41:30.461Z,9.40
2023-01-26T09:44:07.001Z,6.20
2023-01-26T09:47:00.544Z,6.20
2023-01-26T09:49:43.879Z,8.20
2023-01-26T09:52:32.953Z,10.40
2023-01-26T09:55:07.220Z,7.00
2023-01-26T09:57:38.701Z,9.00
2023-01-26T10:00:11.721Z,10.00
2023-01-26T10:03:14.723Z,7.00
2023-01-26T10:05:51.811Z,10.00
2023-01-26T10:08:39.851Z,8.20
2023-01-26T10:11:54.211Z,10.00
2023-01-26T10:14:26.179Z,12.00
2023-01-26T10:16:54.726Z,9.20
2023-01-26T10:19:51.515Z,8.20
2023-01-26T10:22:23.351Z,9.20
2023-01-26T10:24:53.393Z,9.00
2023-01-26T10:27:21.269Z,9.00
2023-01-26T10:29:48.861Z,4.00
2023-01-26T10:32:18.457Z,7.00
2023-01-26T10:34:48.838Z,5.20
2023-01-26T10:37:21.874Z,11.20
2023-01-26T10:40:04.781Z,7.00
2023-01-26T10:42:35.224Z,6.80
2023-01-26T10:45:07.090Z,11.60
2023-01-26T10:47:34.863Z,9.40
2023-01-26T10:50:34.719Z,9.60
2023-01-26T10:53:04.665Z,12.80
2023-01-26T10:55:37.529Z,8.80
2023-01-26T10:58:05.332Z,9.20
2023-01-26T11:00:34.521Z,7.00
2023-01-26T11:03:06.545Z,10.80
2023-01-26T11:05:34.329Z,10.00
2023-01-26T11:08:03.601Z,6.20
2023-01-26T11:10:52.195Z,8.20
2023-01-26T11:13:21.954Z,9.20
2023-01-26T11:16:25.017Z,6.00
2023-01-26T11:19:18.696Z,9.80
2023-01-26T11:21:58.925Z,3.80
2023-01-26T11:24:30.419Z,7.00
2023-01-26T11:27:30.320Z,6.00
2023-01-26T11:30:16.245Z,10.00
2023-01-26T11:33:10.958Z,12.60
2023-01-26T11:36:01.026Z,9.50
2023-01-26T11:39:13.074Z,9.00
2023-01-26T11:41:47.350Z,12.00
2023-01-26T11:44:17.463Z,10.80
2023-01-26T11:46:50.954Z,9.50
2023-01-26T11:49:39.974Z,9.80
2023-01-26T11:52:34.865Z,11.50
2023-01-26T11:55:08.555Z,9.60
2023-01-26T11:57:50.630Z,9.40
2023-01-26T12:00:43.356Z,3.40
2023-01-26T12:03:32.017Z,11.60
2023-01-26T12:06:13.695Z,9.40
2023-01-26T12:08:58.716Z,3.00
2023-01-26T12:11:33.587Z,7.80
2023-01-26T12:14:22.610Z,4.00
2023-01-26T12:17:25.059Z,9.60
2023-01-26T12:20:22.245Z,12.00
2023-01-26T12:23:09.232Z,6.60
2023-01-26T12:25:41.540Z,10.40
2023-01-26T12:28:30.977Z,9.00
2023-01-26T12:31:19.894Z,9.40
2023-01-26T12:33:50.034Z,7.40
2023-01-26T12:36:42.423Z,10.00
2023-01-26T12:39:10.189Z,8.00
2023-01-26T12:41:56.354Z,10.00
2023-01-26T12:44:33.514Z,10.00
2023-01-26T12:47:14.414Z,9.80
2023-01-26T12:49:48.059Z,7.80
2023-01-26T12:52:27.753Z,6.60
2023-01-26T12:55:23.429Z,7.00
2023-01-26T12:58:02.732Z,7.00
2023-01-26T13:00:34.131Z,10.00
2023-01-26T13:03:21.935Z,10.80
2023-01-26T13:05:59.663Z,7.00
2023-01-26T13:08:33.401Z,7.80
2023-01-26T13:11:06.996Z,6.60
2023-01-26T13:13:55.234Z,4.00
2023-01-26T13:16:35.665Z,7.00
2023-01-26T13:19:03.824Z,7.60
2023-01-26T13:21:45.434Z,7.40
2023-01-26T13:24:19.052Z,12.00
2023-01-26T13:26:48.957Z,7.80
2023-01-26T13:29:27.666Z,9.00
2023-01-26T13:32:16.961Z,6.00
2023-01-26T13:34:48.713Z,9.40
2023-01-26T13:37:38.454Z,12.20
2023-01-26T13:40:16.416Z,9.60
2023-01-26T13:43:20.743Z,8.80
2023-01-26T13:46:11.944Z,6.60
2023-01-26T13:48:49.510Z,9.00
2023-01-26T13:51:25.621Z,9.00
2023-01-26T13:54:11.452Z,9.20
2023-01-26T13:56:43.969Z,6.80
2023-01-26T13:59:23.354Z,9.60
2023-01-26T14:01:53.748Z,7.00
2023-01-26T14:04:22.280Z,5.20
2023-01-26T14:07:12.556Z,3.40
2023-01-26T14:09:49.771Z,9.20
2023-01-26T14:12:25.605Z,8.00
2023-01-26T14:14:57.090Z,12.80
2023-01-26T14:17:28.331Z,8.20
2023-01-26T14:19:57.121Z,6.60
2023-01-26T14:22:25.620Z,9.20
2023-01-26T14:24:54.093Z,7.00
2023-01-26T14:27:38.058Z,4.40
2023-01-26T14:30:27.464Z,9.20
2023-01-26T14:33:16.800Z,12.00
2023-01-26T14:35:59.613Z,8.60
2023-01-26T14:38:29.464Z,3.80
2023-01-26T14:41:00.082Z,9.00
2023-01-26T14:43:28.128Z,5.60
2023-01-26T14:46:17.815Z,9.00
2023-01-26T14:48:58.494Z,8.60
2023-01-26T14:51:28.084Z,8.20
2023-01-26T14:54:01.370Z,9.00
2023-01-26T14:56:40.192Z,9.00
2023-01-26T14:59:10.007Z,6.00
2023-01-26T15:01:37.792Z,11.20
2023-01-26T15:04:35.007Z,9.60
2023-01-26T15:07:22.183Z,6.80
2023-01-26T15:09:55.798Z,7.00
2023-01-26T15:12:23.660Z,6.40
2023-01-26T15:14:57.036Z,6.60
2023-01-26T15:17:42.346Z,3.00
2023-01-26T15:20:15.836Z,5.20
2023-01-26T15:22:50.655Z,3.80
2023-01-26T15:25:26.707Z,8.20
2023-01-26T15:27:59.655Z,7.40
2023-01-26T15:30:34.174Z,7.80
2023-01-26T15:33:02.192Z,2.20
2023-01-26T15:35:35.082Z,9.00
2023-01-26T15:38:10.172Z,7.80
2023-01-26T15:40:37.589Z,7.60
2023-01-26T15:43:34.304Z,8.60
2023-01-26T15:46:02.063Z,7.00
2023-01-26T15:48:32.161Z,8.20
2023-01-26T15:50:59.906Z,7.40
2023-01-26T15:53:27.440Z,4.00
2023-01-26T15:55:56.457Z,4.00
2023-01-26T15:58:24.479Z,8.40
2023-01-26T16:00:52.915Z,9.00
2023-01-26T16:03:22.391Z,4.80
2023-01-26T16:05:49.998Z,7.20
2023-01-26T16:08:18.605Z,8.80
2023-01-26T16:10:47.025Z,9.00
2023-01-26T16:13:18.305Z,3.00
2023-01-26T16:15:48.470Z,9.00
2023-01-26T16:18:16.232Z,9.00
2023-01-26T16:20:45.959Z,8.60
2023-01-26T16:23:22.887Z,7.40
2023-01-26T16:25:51.341Z,8.80
2023-01-26T16:28:19.586Z,8.80
2023-01-26T16:30:49.622Z,7.80
2023-01-26T16:33:21.202Z,7.00
2023-01-26T16:35:49.096Z,9.00
2023-01-26T16:38:16.676Z,7.00
2023-01-26T16:40:47.555Z,9.00
2023-01-26T16:43:37.995Z,8.20
2023-01-26T16:46:05.424Z,9.00
2023-01-26T16:48:35.114Z,7.00
2023-01-26T16:51:15.154Z,9.00
2023-01-26T16:53:42.642Z,6.60
2023-01-26T16:56:12.292Z,8.60
2023-01-26T16:58:40.170Z,6.20
2023-01-26T17:01:14.701Z,4.80
2023-01-26T17:03:42.300Z,6.80
2023-01-26T17:06:10.331Z,4.40
2023-01-26T17:08:37.670Z,9.20
2023-01-26T17:11:05.174Z,6.20
2023-01-26T17:13:32.648Z,5.80
2023-01-26T17:15:59.968Z,5.80
2023-01-26T17:18:27.364Z,9.00
2023-01-26T17:20:54.713Z,7.00
2023-01-26T17:23:22.040Z,6.80
2023-01-26T17:25:49.643Z,9.00
2023-01-26T17:28:17.004Z,7.00
2023-01-26T17:30:44.413Z,6.80
2023-01-26T17:33:11.700Z,9.00
2023-01-26T17:35:38.917Z,6.20
2023-01-26T17:38:06.236Z,7.00
2023-01-26T17:40:33.584Z,6.00
2023-01-26T17:43:00.885Z,6.40
2023-01-26T17:45:28.979Z,6.40
2023-01-26T17:47:56.264Z,5.80
2023-01-26T17:50:23.434Z,6.40
2023-01-26T17:52:50.797Z,6.60
2023-01-26T17:55:18.112Z,7.00
2023-01-26T17:57:45.276Z,5.80
2023-01-26T18:00:13.112Z,10.00
2023-01-26T18:02:40.394Z,2.20
2023-01-26T18:05:09.032Z,5.20
2023-01-26T18:07:36.469Z,8.20
2023-01-26T18:10:04.646Z,7.00
2023-01-26T18:12:32.093Z,6.00
2023-01-26T18:14:59.366Z,4.00
2023-01-26T18:17:26.613Z,5.20
2023-01-26T18:19:53.856Z,5.00
2023-01-26T18:22:21.440Z,8.00
2023-01-26T18:24:48.821Z,4.60
2023-01-26T18:27:16.135Z,7.80
2023-01-26T18:29:43.441Z,7.60
2023-01-26T18:32:11.349Z,6.40
2023-01-26T18:34:42.207Z,6.00
2023-01-26T18:37:10.581Z,6.20
2023-01-26T18:39:38.085Z,6.00
2023-01-26T18:42:05.673Z,3.80
2023-01-26T18:44:32.885Z,3.80
2023-01-26T18:47:00.287Z,4.00
2023-01-26T18:49:27.572Z,7.60
2023-01-26T18:51:54.919Z,4.00
2023-01-26T18:54:22.250Z,6.20
2023-01-26T18:56:49.547Z,3.80
2023-01-26T18:59:17.930Z,5.80
2023-01-26T19:01:45.372Z,4.60
2023-01-26T19:04:12.950Z,4.00
2023-01-26T19:06:40.547Z,4.00
2023-01-26T19:09:08.897Z,4.00
2023-01-26T19:11:38.964Z,6.00
2023-01-26T19:14:07.832Z,6.00
2023-01-26T19:16:35.378Z,5.60
2023-01-26T19:19:03.017Z,4.80
2023-01-26T19:21:32.932Z,6.00
2023-01-26T19:24:06.336Z,6.00
2023-01-26T19:26:34.415Z,4.00
2023-01-26T19:29:02.434Z,2.80
2023-01-26T19:31:30.934Z,6.60
2023-01-26T19:34:00.728Z,4.00
2023-01-26T19:36:31.109Z,6.40
2023-01-26T19:38:58.573Z,6.80
2023-01-26T19:41:26.250Z,6.80
2023-01-26T19:43:53.690Z,0.00
2023-01-26T19:46:21.446Z,3.20
2023-01-26T19:48:49.090Z,6.00
2023-01-26T19:51:26.881Z,7.00
2023-01-26T19:53:57.119Z,5.00
2023-01-26T19:56:27.597Z,4.40
2023-01-26T19:59:06.530Z,7.20
2023-01-26T20:01:34.535Z,3.80
2023-01-26T20:04:04.748Z,3.60
2023-01-26T20:06:34.234Z,4.20
2023-01-26T20:09:04.067Z,3.00
2023-01-26T20:11:31.823Z,6.20
2023-01-26T20:14:01.526Z,5.20
2023-01-26T20:16:30.270Z,6.00
2023-01-26T20:18:59.356Z,4.00
2023-01-26T20:21:28.428Z,4.40
2023-01-26T20:23:56.421Z,4.40
2023-01-26T20:26:26.075Z,4.60
2023-01-26T20:28:57.877Z,6.80
2023-01-26T20:31:26.672Z,9.60
2023-01-26T20:33:55.000Z,5.80
2023-01-26T20:36:27.739Z,5.60
2023-01-26T20:38:55.426Z,6.20
2023-01-26T20:41:25.574Z,6.60
2023-01-26T20:44:02.313Z,1.00
2023-01-26T20:46:39.867Z,5.20
2023-01-26T20:49:10.541Z,2.20
2023-01-26T20:51:39.729Z,7.00
2023-01-26T20:54:08.711Z,8.20
2023-01-26T20:56:37.149Z,4.00
2023-01-26T20:59:05.800Z,7.00
2023-01-26T21:01:37.037Z,2.40
2023-01-26T21:04:06.004Z,4.60
2023-01-26T21:06:33.488Z,5.80
2023-01-26T21:09:01.358Z,4.00
2023-01-26T21:11:30.995Z,4.00
2023-01-26T21:14:01.400Z,7.80
2023-01-26T21:16:30.549Z,6.80
2023-01-26T21:18:58.133Z,5.20
2023-01-26T21:21:25.871Z,2.60
2023-01-26T21:23:53.668Z,2.20
2023-01-26T21:26:24.585Z,5.20
2023-01-26T21:28:54.152Z,4.00
2023-01-26T21:31:23.812Z,4.40
2023-01-26T21:33:52.068Z,7.00
2023-01-26T21:36:22.959Z,5.00
2023-01-26T21:38:52.744Z,8.00
2023-01-26T21:41:41.527Z,4.60
2023-01-26T21:44:12.543Z,7.80
2023-01-26T21:46:40.752Z,5.80
2023-01-26T21:49:12.970Z,5.40
2023-01-26T21:51:59.341Z,7.00
2023-01-26T21:54:29.759Z,6.00
2023-01-26T21:56:58.393Z,9.20
2023-01-26T21:59:26.328Z,6.60
2023-01-26T22:01:56.283Z,10.00
2023-01-26T22:04:30.099Z,7.80
2023-01-26T22:06:57.991Z,4.00
2023-01-26T22:09:25.793Z,0.60
2023-01-26T22:11:53.342Z,9.60
2023-01-26T22:14:23.089Z,4.40
2023-01-26T22:16:50.797Z,8.40
2023-01-26T22:19:18.828Z,6.40
2023-01-26T22:21:46.356Z,7.00
2023-01-26T22:24:14.958Z,9.00
2023-01-26T22:26:43.086Z,9.40
2023-01-26T22:29:13.369Z,8.20
2023-01-26T22:31:42.000Z,9.60
2023-01-26T22:34:12.043Z,6.00
2023-01-26T22:36:40.641Z,8.40
2023-01-26T22:39:08.509Z,8.40
2023-01-26T22:41:37.966Z,8.80
2023-01-26T22:44:06.136Z,5.80
2023-01-26T22:46:34.183Z,10.00
2023-01-26T22:49:04.901Z,9.00
2023-01-26T22:51:37.529Z,8.00
2023-01-26T22:54:05.760Z,6.20
2023-01-26T22:56:33.758Z,8.20
2023-01-26T22:59:02.499Z,6.80
2023-01-26T23:01:32.704Z,6.80
2023-01-26T23:04:01.642Z,7.40
2023-01-26T23:06:29.778Z,7.00
2023-01-26T23:08:58.742Z,6.20
2023-01-26T23:11:28.376Z,6.80
2023-01-26T23:13:58.077Z,4.00
2023-01-26T23:16:26.530Z,4.80
2023-01-26T23:18:56.300Z,1.00
2023-01-26T23:21:24.580Z,5.20
2023-01-26T23:23:52.236Z,4.00
2023-01-26T23:26:20.854Z,4.60
2023-01-26T23:28:48.330Z,5.00
2023-01-26T23:31:17.821Z,4.40
2023-01-26T23:33:46.161Z,3.20
2023-01-26T23:36:15.568Z,1.00
2023-01-26T23:38:44.547Z,4.80
2023-01-26T23:41:12.355Z,4.20
2023-01-26T23:43:40.186Z,4.00
2023-01-26T23:46:09.354Z,2.20
2023-01-26T23:48:37.638Z,3.00
2023-01-26T23:51:10.501Z,2.00
2023-01-26T23:53:38.192Z,1.80
2023-01-26T23:56:14.154Z,1.20
2023-01-26T23:58:41.716Z,4.00
